Tropical Cyclones
[Index]
Main Index Home Page Stock Weather Photos Extreme Storms Discussion Storm News and Storm Chasing Reports Tropical Cyclones / Hurricanes / Typhoons Weather Data and Links Wild Fires / Bushfires Weather Observation Techniques Weather Picture Catalogue Tornado Pictures and Reports Stock Video Footage and DVDs for sale
Season 2005-2006 Tropical Cyclone 200604 Track Map
Season 2005-2006 Summaries: [BoM-AU] [JTWC-AU] [JTWC-SIO] [JTWC-SPAC] [JTWC-SH]
<<- Previous TC | JTWC 2005-2006 Season | Next TC ->>

click for intensity scale information  Lat/long Grid: Show Hide

 Date Labels: Show Hide

Joint Typhoon Warning Centre Cyclone Data

Name: 200604

17 Dec 2005 00:00 UTC to 29 Dec 2005 18:00 UTC

    date/time    lat    long     hPa   cat  kts
2005-12-17 00    9.0    83.7    1006         15          
2005-12-17 06    8.5    84.3    1004         20          
2005-12-17 12    8.2    85.1    1002         25          
2005-12-17 18    8.0    85.9    1002         25          
2005-12-18 00    7.9    86.6    1002         25          
2005-12-18 06    8.1    86.9    1002         25          
2005-12-18 12    8.5    87.1    1002         25          
2005-12-18 18    8.9    87.2    1002         25          
2005-12-19 00    9.0    87.5    1002         25          
2005-12-19 06    8.9    87.8    1002         25          
2005-12-19 12    8.7    88.0    1002         25          
2005-12-19 18    8.5    88.2    1002         25          
2005-12-20 00    8.3    88.6    1002         25          
2005-12-20 06    8.1    89.0    1002         25          
2005-12-20 12    7.9    89.7    1002         25          
2005-12-20 18    8.0    90.5    1002         25          
2005-12-21 00    8.2    91.2    1002         25          
2005-12-21 06    8.7    91.7    1002         25          
2005-12-21 12    8.9    91.8    1002         25          
2005-12-21 18    9.1    91.8    1002         25          
2005-12-22 00    9.4    91.8    1002         25          
2005-12-22 06    9.6    91.6    1002         25          
2005-12-22 12    9.8    91.3    1002         25          
2005-12-22 18   10.0    90.6    1002         25          
2005-12-23 00   10.1    89.8    1002         25          
2005-12-23 06   10.4    88.7    1002         25          
2005-12-23 12   10.7    87.9    1002         25          
2005-12-23 18   11.1    87.1    1000         30          
2005-12-24 00   11.8    86.1    1000         30          
2005-12-24 06   12.6    85.0     997         35          
2005-12-24 12   13.0    83.8     997         35          
2005-12-24 18   12.8    82.3     997         35          
2005-12-25 00   12.9    80.8     997         35          
2005-12-25 06   13.2    79.6    1000         30          
2005-12-25 12   13.5    78.3    1000         30          
2005-12-25 18   13.5    76.9    1002         25          
2005-12-26 00   13.4    75.5    1002         25          
2005-12-26 06   13.8    74.2    1002         25          
2005-12-26 12   14.2    73.2    1002         25          
2005-12-26 18   14.3    72.0    1002         25          
2005-12-27 00   14.4    70.8    1003         25          
2005-12-27 06   14.9    69.7    1002         25          
2005-12-27 12   15.4    68.6    1002         25          
2005-12-27 18   15.9    67.5    1002         25          
2005-12-28 00   16.4    66.4    1002         25          
2005-12-28 06   17.1    65.2    1002         25          
2005-12-28 12   17.7    64.0    1002         25          
2005-12-28 18   18.2    62.6    1002         25          
2005-12-29 00   19.2    61.4    1002         25          
2005-12-29 06   20.5    60.6    1002         25          
2005-12-29 12   22.0    60.0    1002         25          
2005-12-29 18   23.5    59.8    1002         25          
Winds are 1-min average.

Tropical cyclone tracks developed by Michael Bath using data from the Joint Typhoon Warning Centre Best Tracks and Google Maps.


[Australian Severe Weather index] [Copyright Notice] [Email Contacts] [Search This Site] [Privacy Policy]
Document: tropical_cyclone_200604.htm Updated: 28 June 2017